sensor_id;sensor_type;location;lat;lon;timestamp;P1;durP1;ratioP1;P2;durP2;ratioP2
27201;SDS011;14717;46.924;15.474;2023-06-22T00:00:43;13.68;;;6.50;;
27201;SDS011;14717;46.924;15.474;2023-06-22T00:03:09;15.35;;;6.13;;
27201;SDS011;14717;46.924;15.474;2023-06-22T00:05:35;13.65;;;5.90;;
27201;SDS011;14717;46.924;15.474;2023-06-22T00:08:02;14.73;;;6.22;;
27201;SDS011;14717;46.924;15.474;2023-06-22T00:10:29;8.95;;;5.40;;
27201;SDS011;14717;46.924;15.474;2023-06-22T00:12:55;13.93;;;6.38;;
27201;SDS011;14717;46.924;15.474;2023-06-22T00:15:20;14.88;;;6.35;;
27201;SDS011;14717;46.924;15.474;2023-06-22T00:17:45;12.65;;;6.90;;
27201;SDS011;14717;46.924;15.474;2023-06-22T00:20:11;13.80;;;6.85;;
27201;SDS011;14717;46.924;15.474;2023-06-22T00:22:36;15.57;;;6.25;;
27201;SDS011;14717;46.924;15.474;2023-06-22T00:25:05;13.38;;;6.45;;
27201;SDS011;14717;46.924;15.474;2023-06-22T00:27:34;12.07;;;6.32;;
27201;SDS011;14717;46.924;15.474;2023-06-22T00:29:59;12.15;;;6.40;;
27201;SDS011;14717;46.924;15.474;2023-06-22T00:32:25;13.63;;;6.38;;
27201;SDS011;14717;46.924;15.474;2023-06-22T00:34:50;10.23;;;6.30;;
27201;SDS011;14717;46.924;15.474;2023-06-22T00:37:16;10.65;;;5.55;;
27201;SDS011;14717;46.924;15.474;2023-06-22T00:39:42;14.75;;;6.75;;
27201;SDS011;14717;46.924;15.474;2023-06-22T00:42:08;13.45;;;6.15;;
27201;SDS011;14717;46.924;15.474;2023-06-22T00:44:33;13.32;;;5.97;;
27201;SDS011;14717;46.924;15.474;2023-06-22T00:46:59;11.20;;;5.55;;
27201;SDS011;14717;46.924;15.474;2023-06-22T00:49:25;13.60;;;5.80;;
27201;SDS011;14717;46.924;15.474;2023-06-22T00:51:51;14.73;;;5.90;;
27201;SDS011;14717;46.924;15.474;2023-06-22T00:54:17;10.65;;;5.47;;
27201;SDS011;14717;46.924;15.474;2023-06-22T00:56:51;11.90;;;5.53;;
27201;SDS011;14717;46.924;15.474;2023-06-22T00:59:19;10.82;;;5.55;;
27201;SDS011;14717;46.924;15.474;2023-06-22T01:01:45;12.13;;;5.30;;
27201;SDS011;14717;46.924;15.474;2023-06-22T01:04:10;15.13;;;5.53;;
27201;SDS011;14717;46.924;15.474;2023-06-22T01:06:38;12.57;;;5.80;;
27201;SDS011;14717;46.924;15.474;2023-06-22T01:09:18;9.07;;;4.65;;
27201;SDS011;14717;46.924;15.474;2023-06-22T01:11:54;10.43;;;5.28;;
27201;SDS011;14717;46.924;15.474;2023-06-22T01:14:28;10.30;;;5.13;;
27201;SDS011;14717;46.924;15.474;2023-06-22T01:17:12;12.07;;;4.97;;
27201;SDS011;14717;46.924;15.474;2023-06-22T01:19:51;16.98;;;4.90;;
27201;SDS011;14717;46.924;15.474;2023-06-22T01:22:21;17.27;;;5.22;;
27201;SDS011;14717;46.924;15.474;2023-06-22T01:27:36;12.18;;;4.90;;
27201;SDS011;14717;46.924;15.474;2023-06-22T01:30:10;10.43;;;4.40;;
27201;SDS011;14717;46.924;15.474;2023-06-22T01:32:37;14.55;;;4.88;;
27201;SDS011;14717;46.924;15.474;2023-06-22T01:35:05;11.15;;;5.18;;
27201;SDS011;14717;46.924;15.474;2023-06-22T01:37:32;9.25;;;4.30;;
27201;SDS011;14717;46.924;15.474;2023-06-22T01:39:59;10.60;;;4.50;;
27201;SDS011;14717;46.924;15.474;2023-06-22T01:42:26;14.13;;;4.97;;
27201;SDS011;14717;46.924;15.474;2023-06-22T01:44:53;10.45;;;5.32;;
27201;SDS011;14717;46.924;15.474;2023-06-22T01:47:20;10.40;;;4.50;;
27201;SDS011;14717;46.924;15.474;2023-06-22T01:49:46;11.90;;;4.93;;
27201;SDS011;14717;46.924;15.474;2023-06-22T01:52:12;9.02;;;4.50;;
27201;SDS011;14717;46.924;15.474;2023-06-22T01:54:39;10.05;;;4.60;;
27201;SDS011;14717;46.924;15.474;2023-06-22T01:57:05;8.85;;;4.10;;
27201;SDS011;14717;46.924;15.474;2023-06-22T02:00:04;9.60;;;4.90;;
27201;SDS011;14717;46.924;15.474;2023-06-22T02:02:31;9.90;;;4.97;;
27201;SDS011;14717;46.924;15.474;2023-06-22T02:05:08;10.20;;;4.63;;
27201;SDS011;14717;46.924;15.474;2023-06-22T02:07:39;11.38;;;4.75;;
27201;SDS011;14717;46.924;15.474;2023-06-22T02:10:09;10.10;;;4.55;;
27201;SDS011;14717;46.924;15.474;2023-06-22T02:12:37;9.95;;;4.97;;
27201;SDS011;14717;46.924;15.474;2023-06-22T02:15:03;12.80;;;5.60;;
27201;SDS011;14717;46.924;15.474;2023-06-22T02:17:30;9.82;;;5.30;;
27201;SDS011;14717;46.924;15.474;2023-06-22T02:19:58;10.27;;;5.22;;
27201;SDS011;14717;46.924;15.474;2023-06-22T02:22:23;11.02;;;5.03;;
27201;SDS011;14717;46.924;15.474;2023-06-22T02:24:49;11.48;;;5.63;;
27201;SDS011;14717;46.924;15.474;2023-06-22T02:27:14;10.90;;;5.15;;
27201;SDS011;14717;46.924;15.474;2023-06-22T02:29:39;10.82;;;4.88;;
27201;SDS011;14717;46.924;15.474;2023-06-22T02:32:05;9.30;;;4.85;;
27201;SDS011;14717;46.924;15.474;2023-06-22T02:34:31;14.68;;;5.38;;
27201;SDS011;14717;46.924;15.474;2023-06-22T02:36:57;13.75;;;4.93;;
27201;SDS011;14717;46.924;15.474;2023-06-22T02:39:24;12.63;;;4.88;;
27201;SDS011;14717;46.924;15.474;2023-06-22T02:41:49;9.40;;;4.85;;
27201;SDS011;14717;46.924;15.474;2023-06-22T02:44:16;11.13;;;4.80;;
27201;SDS011;14717;46.924;15.474;2023-06-22T02:46:42;10.43;;;4.50;;
27201;SDS011;14717;46.924;15.474;2023-06-22T02:49:07;9.68;;;4.75;;
27201;SDS011;14717;46.924;15.474;2023-06-22T02:51:33;9.73;;;4.10;;
27201;SDS011;14717;46.924;15.474;2023-06-22T02:54:04;13.38;;;5.03;;
27201;SDS011;14717;46.924;15.474;2023-06-22T02:56:29;9.68;;;4.97;;
27201;SDS011;14717;46.924;15.474;2023-06-22T02:58:55;8.70;;;4.78;;
27201;SDS011;14717;46.924;15.474;2023-06-22T03:01:29;11.93;;;4.43;;
27201;SDS011;14717;46.924;15.474;2023-06-22T03:04:04;10.43;;;4.82;;
27201;SDS011;14717;46.924;15.474;2023-06-22T03:06:30;10.82;;;4.90;;
27201;SDS011;14717;46.924;15.474;2023-06-22T03:08:59;9.57;;;4.53;;
27201;SDS011;14717;46.924;15.474;2023-06-22T03:11:26;10.40;;;4.47;;
27201;SDS011;14717;46.924;15.474;2023-06-22T03:13:52;10.68;;;4.63;;
27201;SDS011;14717;46.924;15.474;2023-06-22T03:16:18;8.48;;;4.43;;
27201;SDS011;14717;46.924;15.474;2023-06-22T03:18:44;11.20;;;4.90;;
27201;SDS011;14717;46.924;15.474;2023-06-22T03:21:09;10.95;;;5.00;;
27201;SDS011;14717;46.924;15.474;2023-06-22T03:23:35;13.18;;;5.35;;
27201;SDS011;14717;46.924;15.474;2023-06-22T03:26:01;11.93;;;4.82;;
27201;SDS011;14717;46.924;15.474;2023-06-22T03:28:26;13.38;;;5.38;;
27201;SDS011;14717;46.924;15.474;2023-06-22T03:30:51;12.10;;;5.00;;
27201;SDS011;14717;46.924;15.474;2023-06-22T03:33:17;10.60;;;5.05;;
27201;SDS011;14717;46.924;15.474;2023-06-22T03:35:42;8.65;;;4.43;;
27201;SDS011;14717;46.924;15.474;2023-06-22T03:38:07;10.43;;;4.85;;
27201;SDS011;14717;46.924;15.474;2023-06-22T03:40:33;11.32;;;5.20;;
27201;SDS011;14717;46.924;15.474;2023-06-22T03:42:58;13.02;;;5.32;;
27201;SDS011;14717;46.924;15.474;2023-06-22T03:45:23;12.07;;;4.78;;
27201;SDS011;14717;46.924;15.474;2023-06-22T03:47:49;11.73;;;4.47;;
27201;SDS011;14717;46.924;15.474;2023-06-22T03:50:14;10.68;;;5.00;;
27201;SDS011;14717;46.924;15.474;2023-06-22T03:52:40;10.52;;;4.68;;
27201;SDS011;14717;46.924;15.474;2023-06-22T03:55:05;8.90;;;4.47;;
27201;SDS011;14717;46.924;15.474;2023-06-22T03:57:32;13.40;;;5.20;;
27201;SDS011;14717;46.924;15.474;2023-06-22T03:59:57;10.15;;;4.63;;
27201;SDS011;14717;46.924;15.474;2023-06-22T04:02:23;11.65;;;4.70;;
27201;SDS011;14717;46.924;15.474;2023-06-22T04:04:49;11.43;;;5.82;;
27201;SDS011;14717;46.924;15.474;2023-06-22T04:07:14;9.48;;;4.82;;
27201;SDS011;14717;46.924;15.474;2023-06-22T04:09:40;10.80;;;4.40;;
27201;SDS011;14717;46.924;15.474;2023-06-22T04:12:05;9.98;;;5.07;;
27201;SDS011;14717;46.924;15.474;2023-06-22T04:14:31;9.13;;;4.47;;
27201;SDS011;14717;46.924;15.474;2023-06-22T04:16:57;11.88;;;5.65;;
27201;SDS011;14717;46.924;15.474;2023-06-22T04:19:22;11.65;;;5.10;;
27201;SDS011;14717;46.924;15.474;2023-06-22T04:21:48;10.65;;;5.47;;
27201;SDS011;14717;46.924;15.474;2023-06-22T04:24:14;12.00;;;5.07;;
27201;SDS011;14717;46.924;15.474;2023-06-22T04:26:39;11.18;;;5.13;;
27201;SDS011;14717;46.924;15.474;2023-06-22T04:29:06;12.82;;;5.03;;
27201;SDS011;14717;46.924;15.474;2023-06-22T04:31:33;13.07;;;5.32;;
27201;SDS011;14717;46.924;15.474;2023-06-22T04:34:02;11.70;;;5.55;;
27201;SDS011;14717;46.924;15.474;2023-06-22T04:36:32;10.80;;;5.20;;
27201;SDS011;14717;46.924;15.474;2023-06-22T04:39:09;11.52;;;5.50;;
27201;SDS011;14717;46.924;15.474;2023-06-22T04:41:38;14.27;;;5.85;;
27201;SDS011;14717;46.924;15.474;2023-06-22T04:44:08;11.55;;;5.47;;
27201;SDS011;14717;46.924;15.474;2023-06-22T04:46:38;9.90;;;5.47;;
27201;SDS011;14717;46.924;15.474;2023-06-22T04:49:07;14.70;;;5.63;;
27201;SDS011;14717;46.924;15.474;2023-06-22T04:51:36;11.23;;;5.65;;
27201;SDS011;14717;46.924;15.474;2023-06-22T04:54:03;13.20;;;5.45;;
27201;SDS011;14717;46.924;15.474;2023-06-22T04:56:30;12.20;;;5.72;;
27201;SDS011;14717;46.924;15.474;2023-06-22T04:58:56;10.25;;;5.93;;
27201;SDS011;14717;46.924;15.474;2023-06-22T05:01:22;11.75;;;5.78;;
27201;SDS011;14717;46.924;15.474;2023-06-22T05:03:48;11.73;;;5.90;;
27201;SDS011;14717;46.924;15.474;2023-06-22T05:06:14;16.42;;;6.15;;
27201;SDS011;14717;46.924;15.474;2023-06-22T05:08:39;14.98;;;5.93;;
27201;SDS011;14717;46.924;15.474;2023-06-22T05:11:05;14.52;;;6.40;;
27201;SDS011;14717;46.924;15.474;2023-06-22T05:13:31;15.07;;;6.40;;
27201;SDS011;14717;46.924;15.474;2023-06-22T05:15:56;16.52;;;6.75;;
27201;SDS011;14717;46.924;15.474;2023-06-22T05:18:26;14.73;;;6.13;;
27201;SDS011;14717;46.924;15.474;2023-06-22T05:20:54;11.50;;;5.88;;
27201;SDS011;14717;46.924;15.474;2023-06-22T05:23:19;12.32;;;5.68;;
27201;SDS011;14717;46.924;15.474;2023-06-22T05:25:45;16.25;;;6.50;;
27201;SDS011;14717;46.924;15.474;2023-06-22T05:28:10;11.38;;;5.47;;
27201;SDS011;14717;46.924;15.474;2023-06-22T05:30:36;10.30;;;6.15;;
27201;SDS011;14717;46.924;15.474;2023-06-22T05:33:02;14.90;;;6.03;;
27201;SDS011;14717;46.924;15.474;2023-06-22T05:35:27;15.50;;;7.00;;
27201;SDS011;14717;46.924;15.474;2023-06-22T05:37:53;13.73;;;5.97;;
27201;SDS011;14717;46.924;15.474;2023-06-22T05:40:18;12.60;;;6.13;;
27201;SDS011;14717;46.924;15.474;2023-06-22T05:42:44;17.80;;;6.40;;
27201;SDS011;14717;46.924;15.474;2023-06-22T05:45:09;16.05;;;5.93;;
27201;SDS011;14717;46.924;15.474;2023-06-22T05:47:35;15.65;;;6.13;;
27201;SDS011;14717;46.924;15.474;2023-06-22T05:50:00;10.55;;;5.75;;
27201;SDS011;14717;46.924;15.474;2023-06-22T05:52:25;16.30;;;6.65;;
27201;SDS011;14717;46.924;15.474;2023-06-22T05:54:51;11.10;;;5.85;;
27201;SDS011;14717;46.924;15.474;2023-06-22T05:57:16;11.77;;;6.18;;
27201;SDS011;14717;46.924;15.474;2023-06-22T05:59:41;16.30;;;6.63;;
27201;SDS011;14717;46.924;15.474;2023-06-22T06:02:07;14.13;;;6.75;;
27201;SDS011;14717;46.924;15.474;2023-06-22T06:04:32;16.73;;;7.20;;
27201;SDS011;14717;46.924;15.474;2023-06-22T06:06:57;13.23;;;6.57;;
27201;SDS011;14717;46.924;15.474;2023-06-22T06:09:23;14.00;;;6.43;;
27201;SDS011;14717;46.924;15.474;2023-06-22T06:11:48;13.43;;;7.28;;
27201;SDS011;14717;46.924;15.474;2023-06-22T06:14:13;15.80;;;6.88;;
27201;SDS011;14717;46.924;15.474;2023-06-22T06:16:39;11.32;;;6.30;;
27201;SDS011;14717;46.924;15.474;2023-06-22T06:19:04;13.82;;;6.35;;
27201;SDS011;14717;46.924;15.474;2023-06-22T06:21:29;12.10;;;6.43;;
27201;SDS011;14717;46.924;15.474;2023-06-22T06:23:55;19.27;;;6.68;;
27201;SDS011;14717;46.924;15.474;2023-06-22T06:26:20;14.15;;;6.68;;
27201;SDS011;14717;46.924;15.474;2023-06-22T06:28:55;14.57;;;6.45;;
27201;SDS011;14717;46.924;15.474;2023-06-22T06:31:21;10.23;;;6.35;;
27201;SDS011;14717;46.924;15.474;2023-06-22T06:33:46;16.42;;;6.50;;
27201;SDS011;14717;46.924;15.474;2023-06-22T06:36:12;13.52;;;6.68;;
27201;SDS011;14717;46.924;15.474;2023-06-22T06:38:37;13.63;;;6.60;;
27201;SDS011;14717;46.924;15.474;2023-06-22T06:41:02;15.88;;;6.28;;
27201;SDS011;14717;46.924;15.474;2023-06-22T06:43:28;16.27;;;6.60;;
27201;SDS011;14717;46.924;15.474;2023-06-22T06:45:53;14.40;;;5.85;;
27201;SDS011;14717;46.924;15.474;2023-06-22T06:48:18;14.73;;;6.68;;
27201;SDS011;14717;46.924;15.474;2023-06-22T06:50:44;18.83;;;6.05;;
27201;SDS011;14717;46.924;15.474;2023-06-22T06:53:09;12.98;;;6.25;;
27201;SDS011;14717;46.924;15.474;2023-06-22T06:55:35;14.95;;;6.10;;
27201;SDS011;14717;46.924;15.474;2023-06-22T06:58:01;14.93;;;6.70;;
27201;SDS011;14717;46.924;15.474;2023-06-22T07:00:27;13.77;;;6.03;;
27201;SDS011;14717;46.924;15.474;2023-06-22T07:02:53;13.70;;;6.40;;
27201;SDS011;14717;46.924;15.474;2023-06-22T07:05:18;13.25;;;6.35;;
27201;SDS011;14717;46.924;15.474;2023-06-22T07:07:44;14.43;;;6.05;;
27201;SDS011;14717;46.924;15.474;2023-06-22T07:10:09;20.05;;;7.00;;
27201;SDS011;14717;46.924;15.474;2023-06-22T07:12:35;15.85;;;6.30;;
27201;SDS011;14717;46.924;15.474;2023-06-22T07:15:04;23.20;;;7.60;;
27201;SDS011;14717;46.924;15.474;2023-06-22T07:19:58;13.82;;;6.63;;
27201;SDS011;14717;46.924;15.474;2023-06-22T07:22:23;16.10;;;6.20;;
27201;SDS011;14717;46.924;15.474;2023-06-22T07:24:49;15.55;;;6.43;;
27201;SDS011;14717;46.924;15.474;2023-06-22T07:27:14;14.38;;;6.15;;
27201;SDS011;14717;46.924;15.474;2023-06-22T07:29:43;15.85;;;6.00;;
27201;SDS011;14717;46.924;15.474;2023-06-22T07:32:08;12.90;;;5.85;;
27201;SDS011;14717;46.924;15.474;2023-06-22T07:34:34;12.18;;;6.47;;
27201;SDS011;14717;46.924;15.474;2023-06-22T07:36:59;15.88;;;6.13;;
27201;SDS011;14717;46.924;15.474;2023-06-22T07:39:24;10.20;;;5.88;;
27201;SDS011;14717;46.924;15.474;2023-06-22T07:41:51;12.82;;;6.50;;
27201;SDS011;14717;46.924;15.474;2023-06-22T07:44:17;9.70;;;5.70;;
27201;SDS011;14717;46.924;15.474;2023-06-22T07:46:43;10.82;;;5.68;;
27201;SDS011;14717;46.924;15.474;2023-06-22T07:49:08;12.90;;;5.80;;
27201;SDS011;14717;46.924;15.474;2023-06-22T07:51:34;16.52;;;6.25;;
27201;SDS011;14717;46.924;15.474;2023-06-22T07:53:59;16.10;;;6.28;;
27201;SDS011;14717;46.924;15.474;2023-06-22T07:56:25;18.45;;;6.28;;
27201;SDS011;14717;46.924;15.474;2023-06-22T07:58:50;11.90;;;5.78;;
27201;SDS011;14717;46.924;15.474;2023-06-22T08:01:15;11.18;;;5.95;;
27201;SDS011;14717;46.924;15.474;2023-06-22T08:03:42;9.52;;;5.53;;
27201;SDS011;14717;46.924;15.474;2023-06-22T08:06:07;10.73;;;6.28;;
27201;SDS011;14717;46.924;15.474;2023-06-22T08:08:34;11.70;;;6.05;;
27201;SDS011;14717;46.924;15.474;2023-06-22T08:11:00;11.43;;;5.90;;
27201;SDS011;14717;46.924;15.474;2023-06-22T08:13:26;13.95;;;6.22;;
27201;SDS011;14717;46.924;15.474;2023-06-22T08:15:51;11.52;;;5.80;;
27201;SDS011;14717;46.924;15.474;2023-06-22T08:18:17;11.95;;;5.90;;
27201;SDS011;14717;46.924;15.474;2023-06-22T08:20:42;10.38;;;6.18;;
27201;SDS011;14717;46.924;15.474;2023-06-22T08:23:07;12.50;;;6.35;;
27201;SDS011;14717;46.924;15.474;2023-06-22T08:25:33;12.80;;;6.57;;
27201;SDS011;14717;46.924;15.474;2023-06-22T08:27:59;9.13;;;5.80;;
27201;SDS011;14717;46.924;15.474;2023-06-22T08:30:25;14.65;;;6.68;;
27201;SDS011;14717;46.924;15.474;2023-06-22T08:32:51;11.30;;;5.97;;
27201;SDS011;14717;46.924;15.474;2023-06-22T08:35:16;7.95;;;5.22;;
27201;SDS011;14717;46.924;15.474;2023-06-22T08:37:42;9.38;;;5.85;;
27201;SDS011;14717;46.924;15.474;2023-06-22T08:40:08;11.05;;;5.95;;
27201;SDS011;14717;46.924;15.474;2023-06-22T08:42:39;9.52;;;5.43;;
27201;SDS011;14717;46.924;15.474;2023-06-22T08:45:05;14.95;;;5.30;;
27201;SDS011;14717;46.924;15.474;2023-06-22T08:47:31;13.48;;;6.10;;
27201;SDS011;14717;46.924;15.474;2023-06-22T08:49:57;9.95;;;5.50;;
27201;SDS011;14717;46.924;15.474;2023-06-22T08:52:22;10.15;;;5.47;;
27201;SDS011;14717;46.924;15.474;2023-06-22T08:54:48;15.48;;;5.95;;
27201;SDS011;14717;46.924;15.474;2023-06-22T08:57:13;14.88;;;5.47;;
27201;SDS011;14717;46.924;15.474;2023-06-22T08:59:39;11.18;;;5.97;;
27201;SDS011;14717;46.924;15.474;2023-06-22T09:02:05;14.23;;;6.05;;
27201;SDS011;14717;46.924;15.474;2023-06-22T09:04:30;10.45;;;5.43;;
27201;SDS011;14717;46.924;15.474;2023-06-22T09:06:59;11.40;;;5.95;;
27201;SDS011;14717;46.924;15.474;2023-06-22T09:09:25;11.10;;;5.45;;
27201;SDS011;14717;46.924;15.474;2023-06-22T09:11:50;11.27;;;6.20;;
27201;SDS011;14717;46.924;15.474;2023-06-22T09:14:16;11.75;;;5.35;;
27201;SDS011;14717;46.924;15.474;2023-06-22T09:16:41;13.25;;;6.10;;
27201;SDS011;14717;46.924;15.474;2023-06-22T09:19:07;15.73;;;6.32;;
27201;SDS011;14717;46.924;15.474;2023-06-22T09:21:32;12.52;;;5.75;;
27201;SDS011;14717;46.924;15.474;2023-06-22T09:23:57;10.35;;;5.70;;
27201;SDS011;14717;46.924;15.474;2023-06-22T09:26:23;14.52;;;6.43;;
27201;SDS011;14717;46.924;15.474;2023-06-22T09:28:49;9.73;;;5.85;;
27201;SDS011;14717;46.924;15.474;2023-06-22T09:31:14;11.30;;;6.13;;
27201;SDS011;14717;46.924;15.474;2023-06-22T09:33:42;12.05;;;5.82;;
27201;SDS011;14717;46.924;15.474;2023-06-22T09:36:08;12.57;;;5.93;;
27201;SDS011;14717;46.924;15.474;2023-06-22T09:38:37;12.60;;;6.38;;
27201;SDS011;14717;46.924;15.474;2023-06-22T09:41:03;12.25;;;5.78;;
27201;SDS011;14717;46.924;15.474;2023-06-22T09:43:29;10.52;;;6.07;;
27201;SDS011;14717;46.924;15.474;2023-06-22T09:45:56;11.50;;;6.28;;
27201;SDS011;14717;46.924;15.474;2023-06-22T09:48:21;12.35;;;7.28;;
27201;SDS011;14717;46.924;15.474;2023-06-22T09:50:47;12.32;;;6.25;;
27201;SDS011;14717;46.924;15.474;2023-06-22T09:53:12;13.88;;;6.60;;
27201;SDS011;14717;46.924;15.474;2023-06-22T09:55:37;11.00;;;6.43;;
27201;SDS011;14717;46.924;15.474;2023-06-22T09:58:03;15.25;;;6.28;;
27201;SDS011;14717;46.924;15.474;2023-06-22T10:00:28;11.20;;;6.05;;
27201;SDS011;14717;46.924;15.474;2023-06-22T10:02:53;8.85;;;5.60;;
27201;SDS011;14717;46.924;15.474;2023-06-22T10:05:20;12.43;;;5.72;;
27201;SDS011;14717;46.924;15.474;2023-06-22T10:07:46;15.18;;;5.93;;
27201;SDS011;14717;46.924;15.474;2023-06-22T10:10:11;14.32;;;5.75;;
27201;SDS011;14717;46.924;15.474;2023-06-22T10:12:42;13.20;;;6.10;;
27201;SDS011;14717;46.924;15.474;2023-06-22T10:15:09;10.02;;;5.13;;
27201;SDS011;14717;46.924;15.474;2023-06-22T10:17:35;13.85;;;6.10;;
27201;SDS011;14717;46.924;15.474;2023-06-22T10:20:00;13.23;;;5.68;;
27201;SDS011;14717;46.924;15.474;2023-06-22T10:22:30;11.43;;;5.90;;
27201;SDS011;14717;46.924;15.474;2023-06-22T10:24:56;11.85;;;5.85;;
27201;SDS011;14717;46.924;15.474;2023-06-22T10:27:21;12.40;;;5.90;;
27201;SDS011;14717;46.924;15.474;2023-06-22T10:29:46;13.15;;;5.90;;
27201;SDS011;14717;46.924;15.474;2023-06-22T10:32:12;9.77;;;5.82;;
27201;SDS011;14717;46.924;15.474;2023-06-22T10:34:37;11.63;;;6.18;;
27201;SDS011;14717;46.924;15.474;2023-06-22T10:37:02;13.43;;;5.80;;
27201;SDS011;14717;46.924;15.474;2023-06-22T10:39:28;12.10;;;6.32;;
27201;SDS011;14717;46.924;15.474;2023-06-22T10:41:53;11.27;;;6.22;;
27201;SDS011;14717;46.924;15.474;2023-06-22T10:44:19;13.18;;;6.43;;
27201;SDS011;14717;46.924;15.474;2023-06-22T10:46:45;13.10;;;5.63;;
27201;SDS011;14717;46.924;15.474;2023-06-22T10:49:11;12.93;;;5.95;;
27201;SDS011;14717;46.924;15.474;2023-06-22T10:51:36;11.63;;;5.88;;
27201;SDS011;14717;46.924;15.474;2023-06-22T10:54:01;14.90;;;6.78;;
27201;SDS011;14717;46.924;15.474;2023-06-22T10:56:29;12.13;;;5.82;;
27201;SDS011;14717;46.924;15.474;2023-06-22T10:58:54;13.55;;;6.00;;
27201;SDS011;14717;46.924;15.474;2023-06-22T11:01:20;14.13;;;5.70;;
27201;SDS011;14717;46.924;15.474;2023-06-22T11:03:45;13.52;;;6.65;;
27201;SDS011;14717;46.924;15.474;2023-06-22T11:06:11;14.07;;;6.75;;
27201;SDS011;14717;46.924;15.474;2023-06-22T11:08:36;14.88;;;6.50;;
27201;SDS011;14717;46.924;15.474;2023-06-22T11:11:01;13.05;;;6.82;;
27201;SDS011;14717;46.924;15.474;2023-06-22T11:13:27;13.77;;;6.28;;
27201;SDS011;14717;46.924;15.474;2023-06-22T11:15:52;14.40;;;6.55;;
27201;SDS011;14717;46.924;15.474;2023-06-22T11:18:17;13.27;;;6.18;;
27201;SDS011;14717;46.924;15.474;2023-06-22T11:20:43;12.35;;;6.03;;
27201;SDS011;14717;46.924;15.474;2023-06-22T11:23:09;12.48;;;6.38;;
27201;SDS011;14717;46.924;15.474;2023-06-22T11:25:36;11.75;;;6.50;;
27201;SDS011;14717;46.924;15.474;2023-06-22T11:28:03;12.98;;;6.40;;
27201;SDS011;14717;46.924;15.474;2023-06-22T11:30:29;13.85;;;7.15;;
27201;SDS011;14717;46.924;15.474;2023-06-22T11:32:56;16.65;;;6.50;;
27201;SDS011;14717;46.924;15.474;2023-06-22T11:35:23;14.35;;;6.95;;
27201;SDS011;14717;46.924;15.474;2023-06-22T11:37:48;9.80;;;6.03;;
27201;SDS011;14717;46.924;15.474;2023-06-22T11:40:13;12.05;;;6.50;;
27201;SDS011;14717;46.924;15.474;2023-06-22T11:42:39;17.15;;;6.70;;
27201;SDS011;14717;46.924;15.474;2023-06-22T11:45:04;12.50;;;6.25;;
27201;SDS011;14717;46.924;15.474;2023-06-22T11:47:30;14.20;;;6.50;;
27201;SDS011;14717;46.924;15.474;2023-06-22T11:49:56;13.82;;;6.43;;
27201;SDS011;14717;46.924;15.474;2023-06-22T11:52:21;14.18;;;6.65;;
27201;SDS011;14717;46.924;15.474;2023-06-22T11:54:46;11.20;;;6.57;;
27201;SDS011;14717;46.924;15.474;2023-06-22T11:57:12;15.82;;;7.50;;
27201;SDS011;14717;46.924;15.474;2023-06-22T11:59:37;12.27;;;6.78;;
27201;SDS011;14717;46.924;15.474;2023-06-22T12:02:03;11.25;;;6.95;;
27201;SDS011;14717;46.924;15.474;2023-06-22T12:04:30;13.80;;;6.93;;
27201;SDS011;14717;46.924;15.474;2023-06-22T12:06:55;13.05;;;7.00;;
27201;SDS011;14717;46.924;15.474;2023-06-22T12:09:21;12.77;;;6.40;;
27201;SDS011;14717;46.924;15.474;2023-06-22T12:11:46;15.95;;;6.85;;
27201;SDS011;14717;46.924;15.474;2023-06-22T12:14:11;14.90;;;7.93;;
27201;SDS011;14717;46.924;15.474;2023-06-22T12:16:37;14.15;;;7.63;;
27201;SDS011;14717;46.924;15.474;2023-06-22T12:19:02;13.48;;;7.32;;
27201;SDS011;14717;46.924;15.474;2023-06-22T12:21:28;11.23;;;6.75;;
27201;SDS011;14717;46.924;15.474;2023-06-22T12:23:54;18.60;;;7.35;;
27201;SDS011;14717;46.924;15.474;2023-06-22T12:26:19;12.98;;;7.32;;
27201;SDS011;14717;46.924;15.474;2023-06-22T12:28:44;13.27;;;7.32;;
27201;SDS011;14717;46.924;15.474;2023-06-22T12:31:10;11.88;;;6.97;;
27201;SDS011;14717;46.924;15.474;2023-06-22T12:33:35;11.55;;;6.60;;
27201;SDS011;14717;46.924;15.474;2023-06-22T12:36:00;13.45;;;6.97;;
27201;SDS011;14717;46.924;15.474;2023-06-22T12:38:26;16.58;;;7.50;;
27201;SDS011;14717;46.924;15.474;2023-06-22T12:40:51;16.75;;;7.85;;
27201;SDS011;14717;46.924;15.474;2023-06-22T12:43:17;12.35;;;7.05;;
27201;SDS011;14717;46.924;15.474;2023-06-22T12:45:43;11.82;;;6.90;;
27201;SDS011;14717;46.924;15.474;2023-06-22T12:48:08;13.52;;;7.15;;
27201;SDS011;14717;46.924;15.474;2023-06-22T12:50:34;14.90;;;7.38;;
27201;SDS011;14717;46.924;15.474;2023-06-22T12:52:59;14.23;;;6.97;;
27201;SDS011;14717;46.924;15.474;2023-06-22T12:55:27;15.93;;;7.55;;
27201;SDS011;14717;46.924;15.474;2023-06-22T12:57:52;13.75;;;7.20;;
27201;SDS011;14717;46.924;15.474;2023-06-22T13:00:17;13.55;;;7.07;;
27201;SDS011;14717;46.924;15.474;2023-06-22T13:02:43;14.13;;;8.15;;
27201;SDS011;14717;46.924;15.474;2023-06-22T13:05:08;13.13;;;6.88;;
27201;SDS011;14717;46.924;15.474;2023-06-22T13:07:34;15.43;;;6.75;;
27201;SDS011;14717;46.924;15.474;2023-06-22T13:09:59;13.05;;;7.18;;
27201;SDS011;14717;46.924;15.474;2023-06-22T13:12:24;14.55;;;7.32;;
27201;SDS011;14717;46.924;15.474;2023-06-22T13:14:50;12.27;;;6.82;;
27201;SDS011;14717;46.924;15.474;2023-06-22T13:17:15;15.55;;;8.00;;
27201;SDS011;14717;46.924;15.474;2023-06-22T13:19:41;14.18;;;7.53;;
27201;SDS011;14717;46.924;15.474;2023-06-22T13:25:11;12.30;;;7.10;;
27201;SDS011;14717;46.924;15.474;2023-06-22T13:27:41;11.45;;;6.95;;
27201;SDS011;14717;46.924;15.474;2023-06-22T13:30:07;11.88;;;6.78;;
27201;SDS011;14717;46.924;15.474;2023-06-22T13:32:33;14.13;;;7.40;;
27201;SDS011;14717;46.924;15.474;2023-06-22T13:34:58;13.77;;;6.95;;
27201;SDS011;14717;46.924;15.474;2023-06-22T13:37:25;16.70;;;7.35;;
27201;SDS011;14717;46.924;15.474;2023-06-22T13:39:50;12.10;;;7.22;;
27201;SDS011;14717;46.924;15.474;2023-06-22T13:42:16;13.35;;;6.50;;
27201;SDS011;14717;46.924;15.474;2023-06-22T13:44:41;14.10;;;7.05;;
27201;SDS011;14717;46.924;15.474;2023-06-22T13:47:07;14.77;;;6.95;;
27201;SDS011;14717;46.924;15.474;2023-06-22T13:49:32;15.68;;;7.65;;
27201;SDS011;14717;46.924;15.474;2023-06-22T13:51:57;12.52;;;7.30;;
27201;SDS011;14717;46.924;15.474;2023-06-22T13:54:24;13.15;;;7.50;;
27201;SDS011;14717;46.924;15.474;2023-06-22T13:56:49;14.07;;;7.28;;
27201;SDS011;14717;46.924;15.474;2023-06-22T13:59:14;10.60;;;6.90;;
27201;SDS011;14717;46.924;15.474;2023-06-22T14:01:40;13.85;;;7.55;;
27201;SDS011;14717;46.924;15.474;2023-06-22T14:04:06;13.57;;;7.00;;
27201;SDS011;14717;46.924;15.474;2023-06-22T14:06:31;13.75;;;6.85;;
27201;SDS011;14717;46.924;15.474;2023-06-22T14:08:56;14.52;;;7.43;;
27201;SDS011;14717;46.924;15.474;2023-06-22T14:11:22;17.35;;;7.68;;
27201;SDS011;14717;46.924;15.474;2023-06-22T14:13:47;12.93;;;7.55;;
27201;SDS011;14717;46.924;15.474;2023-06-22T14:16:12;12.65;;;7.35;;
27201;SDS011;14717;46.924;15.474;2023-06-22T14:18:38;13.98;;;7.32;;
27201;SDS011;14717;46.924;15.474;2023-06-22T14:21:03;12.02;;;7.60;;
27201;SDS011;14717;46.924;15.474;2023-06-22T14:23:29;14.23;;;7.38;;
27201;SDS011;14717;46.924;15.474;2023-06-22T14:25:54;14.18;;;7.55;;